ADDS METAR Data INFO
IDs: Format: Raw Decoded Include TAF

Data at: 0747 UTC 21 Jul 2018

PATG 210726Z AUTO 12011KT 5SM BR FEW016 OVC036 14/13 A3021 RMK AO2
PATG 210714Z AUTO 10009G16KT 2 1/2SM BR FEW016 OVC038 14/13 A3021 RMK AO2
PATG 210656Z AUTO 11011KT 4SM BR SCT016 OVC038 14/13 A3021 RMK AO2 SLP323 T01440128
PATG 210617Z AUTO 11010KT 8SM SCT016 OVC042 15/13 A3020 RMK AO2
PATG 210556Z AUTO 12010KT 6SM BR BKN016 OVC040 15/13 A3020 RMK AO2 SLP320 T01500133 10167 20150 53001
PATG 210456Z AUTO 13011KT 9SM OVC016 15/13 A3019 RMK AO2 SLP318 T01500133
PATG 210435Z AUTO 13011KT 10SM BKN016 OVC038 15/13 A3019 RMK AO2
PATG 210422Z AUTO 12009KT 7SM SCT018 OVC038 15/13 A3019 RMK AO2
PATG 210356Z AUTO 13009KT 9SM OVC018 16/13 A3019 RMK AO2 SLP318 T01560133
PATG 210256Z AUTO 12016KT 10SM OVC021 16/13 A3020 RMK AO2 SLP319 T01560133 55001
PATG 210156Z AUTO 13008KT 10SM FEW021 BKN027 OVC041 16/13 A3020 RMK AO2 SLP319 T01610133
PATG 210056Z AUTO 12008KT 8SM OVC023 17/13 A3019 RMK AO2 SLP318 T01670133
PATG 202356Z AUTO 12006KT 9SM OVC023 16/13 A3020 RMK AO2 SLP320 6//// T01610133 10167 20133 58008
PATG 202256Z AUTO 08011KT 10SM OVC019 16/13 A3021 RMK AO2 SLP323 T01560133
PATG 202156Z AUTO 11008KT 10SM OVC020 15/12 A3022 RMK AO2 SLP329 T01500122
PATG 200956Z AUTO 00000KT 10SM BKN039 12/10 A3024 RMK AO2 SLP334 T01170100
PATG 200756Z AUTO VRB03KT 10SM CLR 12/10 A3023 RMK AO2 SLP332 T01170100
PATG 200556Z AUTO 19004KT 10SM BKN030 14/11 A3023 RMK AO2 SLP333 T01390111 10150 20133 53001
PATG 200324Z AUTO 15012KT 10SM BKN031 14/11 A3023 RMK AO2
PATG 200312Z AUTO 14011KT 10SM BKN029 14/11 A3024 RMK AO2
PATG 200156Z AUTO 15014KT 10SM BKN029 14/11 A3024 RMK AO2 SLP335 T01390111
PATG 200138Z AUTO 17013KT 10SM SCT028 BKN033 14/12 A3024 RMK AO2
PATG 192356Z AUTO 21005KT 10SM OVC031 14/11 A3025 RMK AO2 SLP338 T01390106 10139 20117 50000
PATG 192056Z AUTO 21006KT 10SM OVC027 13/10 A3025 RMK AO2 SLP338 T01280100 51004